sensor_id;sensor_type;location;lat;lon;timestamp;P1;durP1;ratioP1;P2;durP2;ratioP2
70337;SDS011;57757;53.198;19.646;2024-03-08T00:00:11;18.80;;;5.90;;
70337;SDS011;57757;53.198;19.646;2024-03-08T00:03:02;16.10;;;6.30;;
70337;SDS011;57757;53.198;19.646;2024-03-08T00:05:30;21.80;;;6.80;;
70337;SDS011;57757;53.198;19.646;2024-03-08T00:07:58;17.30;;;6.40;;
70337;SDS011;57757;53.198;19.646;2024-03-08T00:10:27;16.60;;;5.40;;
70337;SDS011;57757;53.198;19.646;2024-03-08T00:12:56;15.60;;;5.50;;
70337;SDS011;57757;53.198;19.646;2024-03-08T00:15:24;14.70;;;4.50;;
70337;SDS011;57757;53.198;19.646;2024-03-08T00:17:52;14.60;;;5.20;;
70337;SDS011;57757;53.198;19.646;2024-03-08T00:20:21;17.70;;;6.10;;
70337;SDS011;57757;53.198;19.646;2024-03-08T00:22:48;18.90;;;6.20;;
70337;SDS011;57757;53.198;19.646;2024-03-08T00:25:16;15.70;;;5.30;;
70337;SDS011;57757;53.198;19.646;2024-03-08T00:27:43;17.70;;;5.70;;
70337;SDS011;57757;53.198;19.646;2024-03-08T00:30:11;19.60;;;6.10;;
70337;SDS011;57757;53.198;19.646;2024-03-08T00:32:40;21.80;;;6.70;;
70337;SDS011;57757;53.198;19.646;2024-03-08T00:35:08;18.00;;;5.90;;
70337;SDS011;57757;53.198;19.646;2024-03-08T00:37:36;18.50;;;5.90;;
70337;SDS011;57757;53.198;19.646;2024-03-08T00:40:04;19.40;;;6.50;;
70337;SDS011;57757;53.198;19.646;2024-03-08T00:42:34;20.70;;;5.80;;
70337;SDS011;57757;53.198;19.646;2024-03-08T00:45:02;17.80;;;6.20;;
70337;SDS011;57757;53.198;19.646;2024-03-08T00:47:30;18.00;;;5.80;;
70337;SDS011;57757;53.198;19.646;2024-03-08T00:49:58;19.20;;;6.10;;
70337;SDS011;57757;53.198;19.646;2024-03-08T00:52:26;18.30;;;5.70;;
70337;SDS011;57757;53.198;19.646;2024-03-08T00:54:53;18.60;;;6.00;;
70337;SDS011;57757;53.198;19.646;2024-03-08T00:57:21;15.70;;;5.60;;
70337;SDS011;57757;53.198;19.646;2024-03-08T00:59:49;14.50;;;5.00;;
70337;SDS011;57757;53.198;19.646;2024-03-08T01:02:17;17.00;;;5.40;;
70337;SDS011;57757;53.198;19.646;2024-03-08T01:04:46;19.90;;;5.80;;
70337;SDS011;57757;53.198;19.646;2024-03-08T01:07:14;16.60;;;5.10;;
70337;SDS011;57757;53.198;19.646;2024-03-08T01:09:42;13.80;;;5.40;;
70337;SDS011;57757;53.198;19.646;2024-03-08T01:12:10;17.00;;;5.60;;
70337;SDS011;57757;53.198;19.646;2024-03-08T01:14:38;17.60;;;5.20;;
70337;SDS011;57757;53.198;19.646;2024-03-08T01:17:06;15.90;;;5.60;;
70337;SDS011;57757;53.198;19.646;2024-03-08T01:19:34;16.70;;;5.50;;
70337;SDS011;57757;53.198;19.646;2024-03-08T01:22:01;16.40;;;5.80;;
70337;SDS011;57757;53.198;19.646;2024-03-08T01:24:29;16.00;;;5.40;;
70337;SDS011;57757;53.198;19.646;2024-03-08T01:26:56;16.80;;;5.40;;
70337;SDS011;57757;53.198;19.646;2024-03-08T01:29:24;15.80;;;5.50;;
70337;SDS011;57757;53.198;19.646;2024-03-08T01:31:51;17.60;;;5.90;;
70337;SDS011;57757;53.198;19.646;2024-03-08T01:34:20;17.80;;;5.80;;
70337;SDS011;57757;53.198;19.646;2024-03-08T01:36:48;16.60;;;5.50;;
70337;SDS011;57757;53.198;19.646;2024-03-08T01:39:16;17.40;;;5.50;;
70337;SDS011;57757;53.198;19.646;2024-03-08T01:41:44;17.30;;;6.40;;
70337;SDS011;57757;53.198;19.646;2024-03-08T01:44:12;16.60;;;6.60;;
70337;SDS011;57757;53.198;19.646;2024-03-08T01:46:43;18.80;;;6.10;;
70337;SDS011;57757;53.198;19.646;2024-03-08T01:49:12;15.40;;;4.90;;
70337;SDS011;57757;53.198;19.646;2024-03-08T01:51:41;18.00;;;5.40;;
70337;SDS011;57757;53.198;19.646;2024-03-08T01:54:09;17.40;;;5.20;;
70337;SDS011;57757;53.198;19.646;2024-03-08T01:56:38;17.80;;;6.20;;
70337;SDS011;57757;53.198;19.646;2024-03-08T01:59:06;16.50;;;5.60;;
70337;SDS011;57757;53.198;19.646;2024-03-08T02:01:35;16.50;;;5.30;;
70337;SDS011;57757;53.198;19.646;2024-03-08T02:04:03;17.10;;;5.90;;
70337;SDS011;57757;53.198;19.646;2024-03-08T02:06:30;17.70;;;5.80;;
70337;SDS011;57757;53.198;19.646;2024-03-08T02:08:58;15.50;;;5.50;;
70337;SDS011;57757;53.198;19.646;2024-03-08T02:11:26;19.70;;;6.00;;
70337;SDS011;57757;53.198;19.646;2024-03-08T02:13:54;16.70;;;5.90;;
70337;SDS011;57757;53.198;19.646;2024-03-08T02:16:22;15.70;;;5.70;;
70337;SDS011;57757;53.198;19.646;2024-03-08T02:18:50;16.80;;;5.50;;
70337;SDS011;57757;53.198;19.646;2024-03-08T02:21:18;17.80;;;5.60;;
70337;SDS011;57757;53.198;19.646;2024-03-08T02:23:46;17.00;;;5.60;;
70337;SDS011;57757;53.198;19.646;2024-03-08T02:26:13;19.10;;;5.80;;
70337;SDS011;57757;53.198;19.646;2024-03-08T02:28:41;17.90;;;5.90;;
70337;SDS011;57757;53.198;19.646;2024-03-08T02:31:11;16.70;;;5.40;;
70337;SDS011;57757;53.198;19.646;2024-03-08T02:33:39;15.90;;;5.60;;
70337;SDS011;57757;53.198;19.646;2024-03-08T02:36:07;16.20;;;5.10;;
70337;SDS011;57757;53.198;19.646;2024-03-08T02:38:35;16.80;;;5.50;;
70337;SDS011;57757;53.198;19.646;2024-03-08T02:41:02;18.60;;;6.00;;
70337;SDS011;57757;53.198;19.646;2024-03-08T02:43:31;20.60;;;5.70;;
70337;SDS011;57757;53.198;19.646;2024-03-08T02:45:59;15.40;;;6.10;;
70337;SDS011;57757;53.198;19.646;2024-03-08T02:48:27;18.40;;;6.30;;
70337;SDS011;57757;53.198;19.646;2024-03-08T02:50:54;19.00;;;6.10;;
70337;SDS011;57757;53.198;19.646;2024-03-08T02:53:22;17.60;;;5.90;;
70337;SDS011;57757;53.198;19.646;2024-03-08T02:55:50;17.00;;;6.10;;
70337;SDS011;57757;53.198;19.646;2024-03-08T02:58:17;18.80;;;6.00;;
70337;SDS011;57757;53.198;19.646;2024-03-08T03:00:45;17.00;;;6.30;;
70337;SDS011;57757;53.198;19.646;2024-03-08T03:03:13;17.90;;;6.00;;
70337;SDS011;57757;53.198;19.646;2024-03-08T03:05:41;17.80;;;5.80;;
70337;SDS011;57757;53.198;19.646;2024-03-08T03:08:15;17.90;;;6.00;;
70337;SDS011;57757;53.198;19.646;2024-03-08T03:10:44;18.90;;;5.90;;
70337;SDS011;57757;53.198;19.646;2024-03-08T03:13:13;22.10;;;6.80;;
70337;SDS011;57757;53.198;19.646;2024-03-08T03:15:43;19.30;;;6.00;;
70337;SDS011;57757;53.198;19.646;2024-03-08T03:18:13;18.30;;;6.10;;
70337;SDS011;57757;53.198;19.646;2024-03-08T03:20:41;17.80;;;6.50;;
70337;SDS011;57757;53.198;19.646;2024-03-08T03:23:10;17.80;;;6.20;;
70337;SDS011;57757;53.198;19.646;2024-03-08T03:25:41;20.50;;;6.80;;
70337;SDS011;57757;53.198;19.646;2024-03-08T03:28:09;18.20;;;6.30;;
70337;SDS011;57757;53.198;19.646;2024-03-08T03:30:42;21.70;;;6.20;;
70337;SDS011;57757;53.198;19.646;2024-03-08T03:33:11;16.30;;;5.40;;
70337;SDS011;57757;53.198;19.646;2024-03-08T03:35:40;15.30;;;5.30;;
70337;SDS011;57757;53.198;19.646;2024-03-08T03:38:08;17.30;;;5.50;;
70337;SDS011;57757;53.198;19.646;2024-03-08T03:40:39;17.40;;;6.10;;
70337;SDS011;57757;53.198;19.646;2024-03-08T03:43:09;18.80;;;5.80;;
70337;SDS011;57757;53.198;19.646;2024-03-08T03:45:39;21.20;;;6.50;;
70337;SDS011;57757;53.198;19.646;2024-03-08T03:48:08;33.90;;;8.00;;
70337;SDS011;57757;53.198;19.646;2024-03-08T03:50:38;21.00;;;6.60;;
70337;SDS011;57757;53.198;19.646;2024-03-08T03:53:07;19.30;;;6.20;;
70337;SDS011;57757;53.198;19.646;2024-03-08T03:55:37;18.50;;;6.00;;
70337;SDS011;57757;53.198;19.646;2024-03-08T03:58:08;18.50;;;5.80;;
70337;SDS011;57757;53.198;19.646;2024-03-08T04:00:39;21.30;;;6.20;;
70337;SDS011;57757;53.198;19.646;2024-03-08T04:03:07;19.70;;;6.00;;
70337;SDS011;57757;53.198;19.646;2024-03-08T04:05:36;15.90;;;5.80;;
70337;SDS011;57757;53.198;19.646;2024-03-08T04:08:03;20.90;;;6.60;;
70337;SDS011;57757;53.198;19.646;2024-03-08T04:10:31;21.20;;;7.00;;
70337;SDS011;57757;53.198;19.646;2024-03-08T04:12:59;19.60;;;6.20;;
70337;SDS011;57757;53.198;19.646;2024-03-08T04:15:26;20.10;;;6.60;;
70337;SDS011;57757;53.198;19.646;2024-03-08T04:17:54;18.80;;;6.40;;
70337;SDS011;57757;53.198;19.646;2024-03-08T04:20:22;18.50;;;6.10;;
70337;SDS011;57757;53.198;19.646;2024-03-08T04:22:49;15.30;;;5.90;;
70337;SDS011;57757;53.198;19.646;2024-03-08T04:25:17;17.80;;;5.90;;
70337;SDS011;57757;53.198;19.646;2024-03-08T04:27:45;19.40;;;6.90;;
70337;SDS011;57757;53.198;19.646;2024-03-08T04:30:14;17.80;;;6.60;;
70337;SDS011;57757;53.198;19.646;2024-03-08T04:32:41;19.30;;;6.20;;
70337;SDS011;57757;53.198;19.646;2024-03-08T04:35:10;21.00;;;6.90;;
70337;SDS011;57757;53.198;19.646;2024-03-08T04:37:39;25.60;;;7.50;;
70337;SDS011;57757;53.198;19.646;2024-03-08T04:40:07;17.80;;;6.70;;
70337;SDS011;57757;53.198;19.646;2024-03-08T04:42:35;18.00;;;7.00;;
70337;SDS011;57757;53.198;19.646;2024-03-08T04:45:05;22.80;;;7.90;;
70337;SDS011;57757;53.198;19.646;2024-03-08T04:47:32;36.50;;;11.50;;
70337;SDS011;57757;53.198;19.646;2024-03-08T04:50:00;61.10;;;17.20;;
70337;SDS011;57757;53.198;19.646;2024-03-08T04:52:28;49.90;;;14.50;;
70337;SDS011;57757;53.198;19.646;2024-03-08T04:54:55;46.00;;;14.10;;
70337;SDS011;57757;53.198;19.646;2024-03-08T04:57:23;100.20;;;26.60;;
70337;SDS011;57757;53.198;19.646;2024-03-08T04:59:50;95.80;;;25.60;;
70337;SDS011;57757;53.198;19.646;2024-03-08T05:02:18;83.10;;;23.80;;
70337;SDS011;57757;53.198;19.646;2024-03-08T05:04:45;62.00;;;17.80;;
70337;SDS011;57757;53.198;19.646;2024-03-08T05:07:13;72.10;;;20.00;;
70337;SDS011;57757;53.198;19.646;2024-03-08T05:09:41;48.50;;;15.80;;
70337;SDS011;57757;53.198;19.646;2024-03-08T05:12:09;32.00;;;10.50;;
70337;SDS011;57757;53.198;19.646;2024-03-08T05:14:36;24.40;;;8.80;;
70337;SDS011;57757;53.198;19.646;2024-03-08T05:17:04;27.10;;;8.10;;
70337;SDS011;57757;53.198;19.646;2024-03-08T05:19:34;22.40;;;8.00;;
70337;SDS011;57757;53.198;19.646;2024-03-08T05:22:03;20.30;;;7.40;;
70337;SDS011;57757;53.198;19.646;2024-03-08T05:24:32;22.50;;;7.50;;
70337;SDS011;57757;53.198;19.646;2024-03-08T05:27:00;30.10;;;10.00;;
70337;SDS011;57757;53.198;19.646;2024-03-08T05:29:29;50.20;;;14.90;;
70337;SDS011;57757;53.198;19.646;2024-03-08T05:31:57;60.20;;;17.50;;
70337;SDS011;57757;53.198;19.646;2024-03-08T05:34:26;54.70;;;17.00;;
70337;SDS011;57757;53.198;19.646;2024-03-08T05:36:56;33.70;;;11.60;;
70337;SDS011;57757;53.198;19.646;2024-03-08T05:39:26;47.30;;;15.70;;
70337;SDS011;57757;53.198;19.646;2024-03-08T05:41:53;56.90;;;19.30;;
70337;SDS011;57757;53.198;19.646;2024-03-08T05:44:22;55.60;;;17.60;;
70337;SDS011;57757;53.198;19.646;2024-03-08T05:46:50;36.40;;;12.50;;
70337;SDS011;57757;53.198;19.646;2024-03-08T05:49:18;44.10;;;16.40;;
70337;SDS011;57757;53.198;19.646;2024-03-08T05:51:45;48.80;;;19.10;;
70337;SDS011;57757;53.198;19.646;2024-03-08T05:54:14;57.50;;;21.40;;
70337;SDS011;57757;53.198;19.646;2024-03-08T05:56:46;123.90;;;36.60;;
70337;SDS011;57757;53.198;19.646;2024-03-08T05:59:15;84.60;;;27.10;;
70337;SDS011;57757;53.198;19.646;2024-03-08T06:01:42;65.70;;;22.90;;
70337;SDS011;57757;53.198;19.646;2024-03-08T06:04:10;59.70;;;22.30;;
70337;SDS011;57757;53.198;19.646;2024-03-08T06:06:39;63.70;;;22.80;;
70337;SDS011;57757;53.198;19.646;2024-03-08T06:09:06;73.20;;;26.90;;
70337;SDS011;57757;53.198;19.646;2024-03-08T06:11:37;105.70;;;34.70;;
70337;SDS011;57757;53.198;19.646;2024-03-08T06:14:05;95.20;;;33.50;;
70337;SDS011;57757;53.198;19.646;2024-03-08T06:16:34;98.60;;;32.10;;
70337;SDS011;57757;53.198;19.646;2024-03-08T06:19:03;99.60;;;33.20;;
70337;SDS011;57757;53.198;19.646;2024-03-08T06:21:30;90.10;;;30.90;;
70337;SDS011;57757;53.198;19.646;2024-03-08T06:23:59;70.50;;;27.20;;
70337;SDS011;57757;53.198;19.646;2024-03-08T06:26:27;59.90;;;25.50;;
70337;SDS011;57757;53.198;19.646;2024-03-08T06:28:57;63.50;;;23.90;;
70337;SDS011;57757;53.198;19.646;2024-03-08T06:31:26;52.30;;;21.60;;
70337;SDS011;57757;53.198;19.646;2024-03-08T06:33:53;54.80;;;21.30;;
70337;SDS011;57757;53.198;19.646;2024-03-08T06:36:25;96.60;;;31.10;;
70337;SDS011;57757;53.198;19.646;2024-03-08T06:38:52;67.30;;;23.10;;
70337;SDS011;57757;53.198;19.646;2024-03-08T06:41:21;32.50;;;12.40;;
70337;SDS011;57757;53.198;19.646;2024-03-08T06:43:48;32.70;;;13.20;;
70337;SDS011;57757;53.198;19.646;2024-03-08T06:46:19;31.80;;;12.50;;
70337;SDS011;57757;53.198;19.646;2024-03-08T06:48:48;41.60;;;15.10;;
70337;SDS011;57757;53.198;19.646;2024-03-08T06:51:20;40.50;;;14.60;;
70337;SDS011;57757;53.198;19.646;2024-03-08T06:53:48;39.00;;;13.70;;
70337;SDS011;57757;53.198;19.646;2024-03-08T06:56:17;33.80;;;13.00;;
70337;SDS011;57757;53.198;19.646;2024-03-08T06:58:49;33.60;;;13.60;;
70337;SDS011;57757;53.198;19.646;2024-03-08T07:01:16;45.80;;;15.60;;
70337;SDS011;57757;53.198;19.646;2024-03-08T07:03:44;43.50;;;15.50;;
70337;SDS011;57757;53.198;19.646;2024-03-08T07:06:12;38.10;;;16.00;;
70337;SDS011;57757;53.198;19.646;2024-03-08T07:08:42;39.50;;;15.70;;
70337;SDS011;57757;53.198;19.646;2024-03-08T07:11:10;32.60;;;14.00;;
70337;SDS011;57757;53.198;19.646;2024-03-08T07:13:39;37.30;;;16.00;;
70337;SDS011;57757;53.198;19.646;2024-03-08T07:16:09;45.60;;;17.90;;
70337;SDS011;57757;53.198;19.646;2024-03-08T07:18:39;45.80;;;17.80;;
70337;SDS011;57757;53.198;19.646;2024-03-08T07:21:11;52.00;;;21.10;;
70337;SDS011;57757;53.198;19.646;2024-03-08T07:23:39;57.10;;;23.90;;
70337;SDS011;57757;53.198;19.646;2024-03-08T07:26:22;77.40;;;24.60;;
70337;SDS011;57757;53.198;19.646;2024-03-08T07:28:50;62.30;;;21.60;;
70337;SDS011;57757;53.198;19.646;2024-03-08T07:31:17;54.80;;;18.50;;
70337;SDS011;57757;53.198;19.646;2024-03-08T07:34:01;46.50;;;17.50;;
70337;SDS011;57757;53.198;19.646;2024-03-08T07:36:30;47.40;;;18.40;;
70337;SDS011;57757;53.198;19.646;2024-03-08T07:38:58;55.50;;;19.80;;
70337;SDS011;57757;53.198;19.646;2024-03-08T07:41:25;51.70;;;20.70;;
70337;SDS011;57757;53.198;19.646;2024-03-08T07:43:53;50.90;;;20.20;;
70337;SDS011;57757;53.198;19.646;2024-03-08T07:46:20;35.70;;;14.00;;
70337;SDS011;57757;53.198;19.646;2024-03-08T07:48:48;49.60;;;16.80;;
70337;SDS011;57757;53.198;19.646;2024-03-08T07:51:16;38.50;;;12.40;;
70337;SDS011;57757;53.198;19.646;2024-03-08T07:53:53;35.60;;;13.10;;
70337;SDS011;57757;53.198;19.646;2024-03-08T07:56:27;34.80;;;11.50;;
70337;SDS011;57757;53.198;19.646;2024-03-08T07:58:58;25.30;;;9.50;;
70337;SDS011;57757;53.198;19.646;2024-03-08T08:01:38;23.70;;;9.90;;
70337;SDS011;57757;53.198;19.646;2024-03-08T08:04:06;47.40;;;15.70;;
70337;SDS011;57757;53.198;19.646;2024-03-08T08:06:34;30.70;;;10.10;;
70337;SDS011;57757;53.198;19.646;2024-03-08T08:09:02;30.50;;;10.70;;
70337;SDS011;57757;53.198;19.646;2024-03-08T08:11:30;32.30;;;10.80;;
70337;SDS011;57757;53.198;19.646;2024-03-08T08:13:59;26.00;;;8.70;;
70337;SDS011;57757;53.198;19.646;2024-03-08T08:16:26;26.90;;;8.80;;
70337;SDS011;57757;53.198;19.646;2024-03-08T08:18:54;31.40;;;11.60;;
70337;SDS011;57757;53.198;19.646;2024-03-08T08:21:22;25.10;;;9.80;;
70337;SDS011;57757;53.198;19.646;2024-03-08T08:23:49;23.60;;;8.70;;
70337;SDS011;57757;53.198;19.646;2024-03-08T08:26:19;25.90;;;10.30;;
70337;SDS011;57757;53.198;19.646;2024-03-08T08:28:48;33.50;;;11.30;;
70337;SDS011;57757;53.198;19.646;2024-03-08T08:31:16;34.10;;;11.00;;
70337;SDS011;57757;53.198;19.646;2024-03-08T08:33:45;27.80;;;10.40;;
70337;SDS011;57757;53.198;19.646;2024-03-08T08:36:16;60.40;;;17.30;;
70337;SDS011;57757;53.198;19.646;2024-03-08T08:38:45;39.20;;;15.80;;
70337;SDS011;57757;53.198;19.646;2024-03-08T08:41:14;30.10;;;9.30;;
70337;SDS011;57757;53.198;19.646;2024-03-08T08:43:43;94.20;;;35.60;;
70337;SDS011;57757;53.198;19.646;2024-03-08T08:46:29;33.40;;;13.50;;
70337;SDS011;57757;53.198;19.646;2024-03-08T08:48:57;33.90;;;10.20;;
70337;SDS011;57757;53.198;19.646;2024-03-08T08:51:26;36.00;;;10.70;;
70337;SDS011;57757;53.198;19.646;2024-03-08T08:53:55;27.50;;;10.00;;
70337;SDS011;57757;53.198;19.646;2024-03-08T08:56:23;26.60;;;10.50;;
70337;SDS011;57757;53.198;19.646;2024-03-08T08:58:50;29.30;;;10.20;;
70337;SDS011;57757;53.198;19.646;2024-03-08T09:01:18;63.70;;;31.50;;
70337;SDS011;57757;53.198;19.646;2024-03-08T09:03:46;34.90;;;13.40;;
70337;SDS011;57757;53.198;19.646;2024-03-08T09:06:14;28.90;;;11.10;;
70337;SDS011;57757;53.198;19.646;2024-03-08T09:08:42;29.10;;;10.50;;
70337;SDS011;57757;53.198;19.646;2024-03-08T09:11:11;50.00;;;15.40;;
70337;SDS011;57757;53.198;19.646;2024-03-08T09:13:39;33.10;;;11.00;;
70337;SDS011;57757;53.198;19.646;2024-03-08T09:16:06;21.90;;;8.90;;
70337;SDS011;57757;53.198;19.646;2024-03-08T09:18:34;19.50;;;8.70;;
70337;SDS011;57757;53.198;19.646;2024-03-08T09:21:02;17.30;;;9.00;;
70337;SDS011;57757;53.198;19.646;2024-03-08T09:23:30;29.10;;;14.50;;
70337;SDS011;57757;53.198;19.646;2024-03-08T09:25:58;25.50;;;13.60;;
70337;SDS011;57757;53.198;19.646;2024-03-08T09:28:26;18.90;;;8.90;;
70337;SDS011;57757;53.198;19.646;2024-03-08T09:30:55;27.30;;;9.60;;
70337;SDS011;57757;53.198;19.646;2024-03-08T09:33:27;23.60;;;9.70;;
70337;SDS011;57757;53.198;19.646;2024-03-08T09:35:56;21.60;;;11.00;;
70337;SDS011;57757;53.198;19.646;2024-03-08T09:38:26;21.70;;;9.60;;
70337;SDS011;57757;53.198;19.646;2024-03-08T09:40:54;31.10;;;8.80;;
70337;SDS011;57757;53.198;19.646;2024-03-08T09:43:26;20.60;;;6.80;;
70337;SDS011;57757;53.198;19.646;2024-03-08T09:45:58;28.50;;;8.30;;
70337;SDS011;57757;53.198;19.646;2024-03-08T09:48:25;19.50;;;8.00;;
70337;SDS011;57757;53.198;19.646;2024-03-08T09:50:53;24.30;;;7.10;;
70337;SDS011;57757;53.198;19.646;2024-03-08T09:53:22;21.50;;;8.70;;
70337;SDS011;57757;53.198;19.646;2024-03-08T09:55:50;14.50;;;5.30;;
70337;SDS011;57757;53.198;19.646;2024-03-08T09:58:18;19.00;;;7.70;;
70337;SDS011;57757;53.198;19.646;2024-03-08T10:01:03;14.30;;;5.60;;
70337;SDS011;57757;53.198;19.646;2024-03-08T10:03:35;12.80;;;5.40;;
70337;SDS011;57757;53.198;19.646;2024-03-08T10:06:06;18.90;;;5.90;;
70337;SDS011;57757;53.198;19.646;2024-03-08T10:08:34;11.10;;;4.10;;
70337;SDS011;57757;53.198;19.646;2024-03-08T10:11:02;15.60;;;4.60;;
70337;SDS011;57757;53.198;19.646;2024-03-08T10:13:30;14.90;;;5.10;;
70337;SDS011;57757;53.198;19.646;2024-03-08T10:16:00;12.70;;;4.90;;
70337;SDS011;57757;53.198;19.646;2024-03-08T10:18:28;34.40;;;5.80;;
70337;SDS011;57757;53.198;19.646;2024-03-08T10:21:02;20.80;;;5.20;;
70337;SDS011;57757;53.198;19.646;2024-03-08T10:23:38;15.70;;;6.70;;
70337;SDS011;57757;53.198;19.646;2024-03-08T10:26:10;21.90;;;8.60;;
70337;SDS011;57757;53.198;19.646;2024-03-08T10:28:46;41.30;;;8.00;;
70337;SDS011;57757;53.198;19.646;2024-03-08T10:31:19;14.30;;;6.10;;
70337;SDS011;57757;53.198;19.646;2024-03-08T10:33:47;12.40;;;5.20;;
70337;SDS011;57757;53.198;19.646;2024-03-08T10:36:16;56.70;;;8.50;;
70337;SDS011;57757;53.198;19.646;2024-03-08T10:38:44;19.10;;;6.80;;
70337;SDS011;57757;53.198;19.646;2024-03-08T10:41:16;19.00;;;6.90;;
70337;SDS011;57757;53.198;19.646;2024-03-08T10:46:45;18.40;;;6.80;;
70337;SDS011;57757;53.198;19.646;2024-03-08T10:49:37;14.40;;;6.10;;
70337;SDS011;57757;53.198;19.646;2024-03-08T10:52:12;21.00;;;10.40;;
70337;SDS011;57757;53.198;19.646;2024-03-08T10:54:40;15.20;;;7.40;;
70337;SDS011;57757;53.198;19.646;2024-03-08T10:57:12;47.50;;;27.60;;
70337;SDS011;57757;53.198;19.646;2024-03-08T10:59:40;14.60;;;6.70;;
70337;SDS011;57757;53.198;19.646;2024-03-08T11:02:15;17.10;;;6.80;;
70337;SDS011;57757;53.198;19.646;2024-03-08T11:04:48;16.80;;;5.90;;
70337;SDS011;57757;53.198;19.646;2024-03-08T11:07:17;12.10;;;5.30;;
70337;SDS011;57757;53.198;19.646;2024-03-08T11:09:48;14.80;;;6.10;;
70337;SDS011;57757;53.198;19.646;2024-03-08T11:15:12;15.30;;;5.80;;
70337;SDS011;57757;53.198;19.646;2024-03-08T11:17:49;16.30;;;6.30;;
70337;SDS011;57757;53.198;19.646;2024-03-08T11:20:19;26.90;;;8.10;;
70337;SDS011;57757;53.198;19.646;2024-03-08T11:22:52;21.60;;;7.00;;
70337;SDS011;57757;53.198;19.646;2024-03-08T11:25:39;14.90;;;5.50;;
70337;SDS011;57757;53.198;19.646;2024-03-08T11:28:10;23.40;;;6.00;;
70337;SDS011;57757;53.198;19.646;2024-03-08T11:30:47;21.50;;;6.70;;
70337;SDS011;57757;53.198;19.646;2024-03-08T11:33:39;13.40;;;5.30;;
70337;SDS011;57757;53.198;19.646;2024-03-08T11:36:11;26.70;;;7.90;;
70337;SDS011;57757;53.198;19.646;2024-03-08T11:38:44;16.80;;;6.80;;
70337;SDS011;57757;53.198;19.646;2024-03-08T11:41:12;14.50;;;5.80;;
70337;SDS011;57757;53.198;19.646;2024-03-08T11:43:45;12.50;;;4.80;;
70337;SDS011;57757;53.198;19.646;2024-03-08T11:46:15;12.30;;;5.80;;
70337;SDS011;57757;53.198;19.646;2024-03-08T11:48:44;10.70;;;4.80;;
70337;SDS011;57757;53.198;19.646;2024-03-08T11:51:15;10.80;;;4.40;;
70337;SDS011;57757;53.198;19.646;2024-03-08T11:53:45;28.70;;;6.40;;
70337;SDS011;57757;53.198;19.646;2024-03-08T11:56:16;13.80;;;6.10;;
70337;SDS011;57757;53.198;19.646;2024-03-08T11:58:52;58.40;;;9.70;;
70337;SDS011;57757;53.198;19.646;2024-03-08T12:01:26;16.80;;;6.30;;
70337;SDS011;57757;53.198;19.646;2024-03-08T12:04:00;19.00;;;7.50;;
70337;SDS011;57757;53.198;19.646;2024-03-08T12:06:35;31.30;;;7.30;;
70337;SDS011;57757;53.198;19.646;2024-03-08T12:09:09;11.90;;;5.20;;
70337;SDS011;57757;53.198;19.646;2024-03-08T12:11:50;15.80;;;5.90;;
70337;SDS011;57757;53.198;19.646;2024-03-08T12:14:20;14.40;;;5.60;;
70337;SDS011;57757;53.198;19.646;2024-03-08T12:16:49;13.10;;;6.50;;
70337;SDS011;57757;53.198;19.646;2024-03-08T12:19:22;16.60;;;8.40;;
70337;SDS011;57757;53.198;19.646;2024-03-08T12:21:50;21.10;;;6.50;;
70337;SDS011;57757;53.198;19.646;2024-03-08T12:24:18;13.30;;;6.40;;
70337;SDS011;57757;53.198;19.646;2024-03-08T12:26:48;11.30;;;5.90;;
70337;SDS011;57757;53.198;19.646;2024-03-08T12:32:00;17.30;;;7.70;;
70337;SDS011;57757;53.198;19.646;2024-03-08T12:34:28;16.20;;;7.60;;
70337;SDS011;57757;53.198;19.646;2024-03-08T12:36:59;12.80;;;6.20;;
70337;SDS011;57757;53.198;19.646;2024-03-08T12:39:26;11.70;;;4.80;;
70337;SDS011;57757;53.198;19.646;2024-03-08T12:41:56;11.10;;;5.70;;
70337;SDS011;57757;53.198;19.646;2024-03-08T12:44:27;14.50;;;6.70;;
70337;SDS011;57757;53.198;19.646;2024-03-08T12:46:56;12.00;;;6.10;;
70337;SDS011;57757;53.198;19.646;2024-03-08T12:49:26;18.20;;;7.10;;
70337;SDS011;57757;53.198;19.646;2024-03-08T12:51:54;15.40;;;6.80;;
70337;SDS011;57757;53.198;19.646;2024-03-08T12:54:22;19.80;;;7.70;;
70337;SDS011;57757;53.198;19.646;2024-03-08T12:56:58;21.10;;;8.00;;
70337;SDS011;57757;53.198;19.646;2024-03-08T12:59:26;18.90;;;7.00;;
70337;SDS011;57757;53.198;19.646;2024-03-08T13:01:54;23.10;;;8.90;;
70337;SDS011;57757;53.198;19.646;2024-03-08T13:04:22;16.90;;;7.00;;
70337;SDS011;57757;53.198;19.646;2024-03-08T13:06:50;16.70;;;6.00;;
70337;SDS011;57757;53.198;19.646;2024-03-08T13:09:22;11.30;;;5.40;;
70337;SDS011;57757;53.198;19.646;2024-03-08T13:11:49;76.80;;;9.70;;
70337;SDS011;57757;53.198;19.646;2024-03-08T13:14:17;15.90;;;6.50;;
70337;SDS011;57757;53.198;19.646;2024-03-08T13:16:45;18.70;;;9.20;;
70337;SDS011;57757;53.198;19.646;2024-03-08T13:19:16;13.30;;;5.80;;
70337;SDS011;57757;53.198;19.646;2024-03-08T13:21:44;12.80;;;5.60;;
70337;SDS011;57757;53.198;19.646;2024-03-08T13:24:17;19.40;;;7.70;;
70337;SDS011;57757;53.198;19.646;2024-03-08T13:26:46;24.00;;;8.00;;
70337;SDS011;57757;53.198;19.646;2024-03-08T13:29:15;19.90;;;10.20;;
70337;SDS011;57757;53.198;19.646;2024-03-08T13:31:42;12.80;;;7.20;;
70337;SDS011;57757;53.198;19.646;2024-03-08T13:34:10;15.50;;;6.80;;
70337;SDS011;57757;53.198;19.646;2024-03-08T13:36:38;18.80;;;9.70;;
70337;SDS011;57757;53.198;19.646;2024-03-08T13:39:11;92.30;;;44.80;;
70337;SDS011;57757;53.198;19.646;2024-03-08T13:41:48;18.60;;;9.40;;
70337;SDS011;57757;53.198;19.646;2024-03-08T13:44:15;22.00;;;16.80;;
70337;SDS011;57757;53.198;19.646;2024-03-08T13:46:46;33.10;;;20.70;;
70337;SDS011;57757;53.198;19.646;2024-03-08T13:49:20;25.90;;;11.80;;
70337;SDS011;57757;53.198;19.646;2024-03-08T13:51:48;57.50;;;11.80;;
70337;SDS011;57757;53.198;19.646;2024-03-08T13:54:17;24.10;;;8.80;;
70337;SDS011;57757;53.198;19.646;2024-03-08T13:56:44;16.40;;;9.10;;
70337;SDS011;57757;53.198;19.646;2024-03-08T13:59:12;33.00;;;12.70;;
70337;SDS011;57757;53.198;19.646;2024-03-08T14:01:40;18.60;;;8.30;;
70337;SDS011;57757;53.198;19.646;2024-03-08T14:04:08;22.40;;;8.40;;
70337;SDS011;57757;53.198;19.646;2024-03-08T14:06:36;42.90;;;11.50;;
70337;SDS011;57757;53.198;19.646;2024-03-08T14:09:03;58.20;;;15.60;;
70337;SDS011;57757;53.198;19.646;2024-03-08T14:11:31;17.80;;;9.80;;
70337;SDS011;57757;53.198;19.646;2024-03-08T14:13:59;79.10;;;33.20;;
70337;SDS011;57757;53.198;19.646;2024-03-08T14:16:26;33.20;;;14.60;;
70337;SDS011;57757;53.198;19.646;2024-03-08T14:18:54;27.00;;;14.20;;
70337;SDS011;57757;53.198;19.646;2024-03-08T14:21:21;19.70;;;10.80;;
70337;SDS011;57757;53.198;19.646;2024-03-08T14:23:49;21.50;;;12.70;;
70337;SDS011;57757;53.198;19.646;2024-03-08T14:26:19;30.30;;;9.20;;
70337;SDS011;57757;53.198;19.646;2024-03-08T14:28:48;23.00;;;11.30;;
70337;SDS011;57757;53.198;19.646;2024-03-08T14:31:19;131.00;;;16.80;;
70337;SDS011;57757;53.198;19.646;2024-03-08T14:33:46;22.80;;;10.80;;
70337;SDS011;57757;53.198;19.646;2024-03-08T14:36:17;67.30;;;29.80;;